sensor_id;sensor_type;location;lat;lon;timestamp;P1;durP1;ratioP1;P2;durP2;ratioP2
15043;SDS011;7619;48.562;8.910;2022-07-10T00:00:44;2.03;;;1.83;;
15043;SDS011;7619;48.562;8.910;2022-07-10T00:03:13;2.40;;;1.90;;
15043;SDS011;7619;48.562;8.910;2022-07-10T00:05:42;1.97;;;1.77;;
15043;SDS011;7619;48.562;8.910;2022-07-10T00:08:11;1.87;;;1.77;;
15043;SDS011;7619;48.562;8.910;2022-07-10T00:10:40;2.07;;;1.73;;
15043;SDS011;7619;48.562;8.910;2022-07-10T00:13:08;1.50;;;1.40;;
15043;SDS011;7619;48.562;8.910;2022-07-10T00:15:37;2.33;;;2.13;;
15043;SDS011;7619;48.562;8.910;2022-07-10T00:18:06;4.60;;;2.13;;
15043;SDS011;7619;48.562;8.910;2022-07-10T00:20:35;2.10;;;1.90;;
15043;SDS011;7619;48.562;8.910;2022-07-10T00:23:04;2.97;;;1.90;;
15043;SDS011;7619;48.562;8.910;2022-07-10T00:25:33;2.40;;;2.03;;
15043;SDS011;7619;48.562;8.910;2022-07-10T00:28:00;3.00;;;2.10;;
15043;SDS011;7619;48.562;8.910;2022-07-10T00:30:30;2.67;;;2.13;;
15043;SDS011;7619;48.562;8.910;2022-07-10T00:32:59;2.00;;;1.80;;
15043;SDS011;7619;48.562;8.910;2022-07-10T00:35:28;2.27;;;1.87;;
15043;SDS011;7619;48.562;8.910;2022-07-10T00:37:57;1.90;;;1.77;;
15043;SDS011;7619;48.562;8.910;2022-07-10T00:40:25;3.27;;;2.03;;
15043;SDS011;7619;48.562;8.910;2022-07-10T00:42:53;1.90;;;1.70;;
15043;SDS011;7619;48.562;8.910;2022-07-10T00:45:22;1.83;;;1.67;;
15043;SDS011;7619;48.562;8.910;2022-07-10T00:47:51;1.83;;;1.70;;
15043;SDS011;7619;48.562;8.910;2022-07-10T00:50:20;4.57;;;2.43;;
15043;SDS011;7619;48.562;8.910;2022-07-10T00:52:49;2.60;;;2.20;;
15043;SDS011;7619;48.562;8.910;2022-07-10T00:55:18;1.97;;;1.80;;
15043;SDS011;7619;48.562;8.910;2022-07-10T00:57:46;2.57;;;1.80;;
15043;SDS011;7619;48.562;8.910;2022-07-10T01:00:15;2.50;;;2.30;;
15043;SDS011;7619;48.562;8.910;2022-07-10T01:02:45;2.27;;;2.07;;
15043;SDS011;7619;48.562;8.910;2022-07-10T01:05:14;2.40;;;2.07;;
15043;SDS011;7619;48.562;8.910;2022-07-10T01:07:43;3.33;;;2.27;;
15043;SDS011;7619;48.562;8.910;2022-07-10T01:10:11;3.30;;;2.13;;
15043;SDS011;7619;48.562;8.910;2022-07-10T01:12:40;5.40;;;2.20;;
15043;SDS011;7619;48.562;8.910;2022-07-10T01:15:10;2.77;;;1.93;;
15043;SDS011;7619;48.562;8.910;2022-07-10T01:17:39;2.40;;;2.20;;
15043;SDS011;7619;48.562;8.910;2022-07-10T01:20:09;2.03;;;1.83;;
15043;SDS011;7619;48.562;8.910;2022-07-10T01:22:36;3.00;;;2.53;;
15043;SDS011;7619;48.562;8.910;2022-07-10T01:25:06;3.93;;;1.97;;
15043;SDS011;7619;48.562;8.910;2022-07-10T01:27:37;2.80;;;2.60;;
15043;SDS011;7619;48.562;8.910;2022-07-10T01:30:08;3.20;;;2.53;;
15043;SDS011;7619;48.562;8.910;2022-07-10T01:32:38;1.73;;;1.63;;
15043;SDS011;7619;48.562;8.910;2022-07-10T01:35:09;3.00;;;2.60;;
15043;SDS011;7619;48.562;8.910;2022-07-10T01:37:36;4.07;;;2.30;;
15043;SDS011;7619;48.562;8.910;2022-07-10T01:40:07;2.77;;;2.40;;
15043;SDS011;7619;48.562;8.910;2022-07-10T01:42:35;2.70;;;2.50;;
15043;SDS011;7619;48.562;8.910;2022-07-10T01:45:06;2.37;;;2.17;;
15043;SDS011;7619;48.562;8.910;2022-07-10T01:47:33;2.93;;;2.40;;
15043;SDS011;7619;48.562;8.910;2022-07-10T01:50:03;2.43;;;2.13;;
15043;SDS011;7619;48.562;8.910;2022-07-10T01:52:33;3.80;;;2.00;;
15043;SDS011;7619;48.562;8.910;2022-07-10T01:55:03;2.37;;;2.17;;
15043;SDS011;7619;48.562;8.910;2022-07-10T01:57:32;2.93;;;2.50;;
15043;SDS011;7619;48.562;8.910;2022-07-10T02:00:02;3.77;;;2.60;;
15043;SDS011;7619;48.562;8.910;2022-07-10T02:02:30;4.10;;;2.20;;
15043;SDS011;7619;48.562;8.910;2022-07-10T02:04:59;2.43;;;2.20;;
15043;SDS011;7619;48.562;8.910;2022-07-10T02:07:28;3.23;;;2.57;;
15043;SDS011;7619;48.562;8.910;2022-07-10T02:09:56;2.47;;;2.27;;
15043;SDS011;7619;48.562;8.910;2022-07-10T02:12:23;2.87;;;2.40;;
15043;SDS011;7619;48.562;8.910;2022-07-10T02:14:52;2.47;;;2.27;;
15043;SDS011;7619;48.562;8.910;2022-07-10T02:17:22;5.33;;;2.47;;
15043;SDS011;7619;48.562;8.910;2022-07-10T02:19:51;3.33;;;2.70;;
15043;SDS011;7619;48.562;8.910;2022-07-10T02:22:20;2.70;;;2.50;;
15043;SDS011;7619;48.562;8.910;2022-07-10T02:24:49;2.73;;;2.30;;
15043;SDS011;7619;48.562;8.910;2022-07-10T02:27:17;2.57;;;2.37;;
15043;SDS011;7619;48.562;8.910;2022-07-10T02:29:46;7.67;;;2.77;;
15043;SDS011;7619;48.562;8.910;2022-07-10T02:32:15;3.83;;;2.80;;
15043;SDS011;7619;48.562;8.910;2022-07-10T02:34:43;4.27;;;3.20;;
15043;SDS011;7619;48.562;8.910;2022-07-10T02:37:12;3.93;;;2.87;;
15043;SDS011;7619;48.562;8.910;2022-07-10T02:39:41;4.80;;;3.00;;
15043;SDS011;7619;48.562;8.910;2022-07-10T02:42:11;7.20;;;3.30;;
15043;SDS011;7619;48.562;8.910;2022-07-10T02:44:40;3.90;;;3.23;;
15043;SDS011;7619;48.562;8.910;2022-07-10T02:47:08;3.73;;;3.43;;
15043;SDS011;7619;48.562;8.910;2022-07-10T02:49:37;6.23;;;3.97;;
15043;SDS011;7619;48.562;8.910;2022-07-10T02:52:06;3.73;;;3.43;;
15043;SDS011;7619;48.562;8.910;2022-07-10T02:54:35;4.97;;;4.00;;
15043;SDS011;7619;48.562;8.910;2022-07-10T02:57:05;4.03;;;3.73;;
15043;SDS011;7619;48.562;8.910;2022-07-10T02:59:34;4.00;;;3.67;;
15043;SDS011;7619;48.562;8.910;2022-07-10T03:02:03;5.13;;;3.80;;
15043;SDS011;7619;48.562;8.910;2022-07-10T03:04:33;4.27;;;3.80;;
15043;SDS011;7619;48.562;8.910;2022-07-10T03:07:02;4.90;;;4.27;;
15043;SDS011;7619;48.562;8.910;2022-07-10T03:09:32;5.60;;;4.67;;
15043;SDS011;7619;48.562;8.910;2022-07-10T03:12:01;6.63;;;4.70;;
15043;SDS011;7619;48.562;8.910;2022-07-10T03:14:30;4.37;;;4.00;;
15043;SDS011;7619;48.562;8.910;2022-07-10T03:16:59;5.63;;;4.70;;
15043;SDS011;7619;48.562;8.910;2022-07-10T03:19:28;6.30;;;4.77;;
15043;SDS011;7619;48.562;8.910;2022-07-10T03:21:57;5.10;;;4.60;;
15043;SDS011;7619;48.562;8.910;2022-07-10T03:24:26;5.37;;;4.83;;
15043;SDS011;7619;48.562;8.910;2022-07-10T03:26:55;5.30;;;4.50;;
15043;SDS011;7619;48.562;8.910;2022-07-10T03:29:23;5.73;;;5.20;;
15043;SDS011;7619;48.562;8.910;2022-07-10T03:31:53;6.20;;;5.60;;
15043;SDS011;7619;48.562;8.910;2022-07-10T03:34:22;6.07;;;5.43;;
15043;SDS011;7619;48.562;8.910;2022-07-10T03:36:51;10.07;;;6.73;;
15043;SDS011;7619;48.562;8.910;2022-07-10T03:39:19;7.20;;;6.37;;
15043;SDS011;7619;48.562;8.910;2022-07-10T03:41:49;7.43;;;6.27;;
15043;SDS011;7619;48.562;8.910;2022-07-10T03:44:17;8.00;;;6.73;;
15043;SDS011;7619;48.562;8.910;2022-07-10T03:46:44;9.87;;;5.97;;
15043;SDS011;7619;48.562;8.910;2022-07-10T03:49:13;7.83;;;6.47;;
15043;SDS011;7619;48.562;8.910;2022-07-10T03:51:42;9.30;;;6.20;;
15043;SDS011;7619;48.562;8.910;2022-07-10T03:54:11;7.10;;;5.80;;
15043;SDS011;7619;48.562;8.910;2022-07-10T03:56:39;7.47;;;6.67;;
15043;SDS011;7619;48.562;8.910;2022-07-10T03:59:26;8.03;;;6.13;;
15043;SDS011;7619;48.562;8.910;2022-07-10T04:01:56;6.93;;;6.23;;
15043;SDS011;7619;48.562;8.910;2022-07-10T04:04:23;8.60;;;7.00;;
15043;SDS011;7619;48.562;8.910;2022-07-10T04:06:52;7.07;;;6.37;;
15043;SDS011;7619;48.562;8.910;2022-07-10T04:09:21;7.47;;;6.57;;
15043;SDS011;7619;48.562;8.910;2022-07-10T04:11:49;7.97;;;6.10;;
15043;SDS011;7619;48.562;8.910;2022-07-10T04:14:19;8.17;;;6.23;;
15043;SDS011;7619;48.562;8.910;2022-07-10T04:16:47;6.67;;;6.07;;
15043;SDS011;7619;48.562;8.910;2022-07-10T04:19:16;6.27;;;5.57;;
15043;SDS011;7619;48.562;8.910;2022-07-10T04:21:45;9.83;;;6.20;;
15043;SDS011;7619;48.562;8.910;2022-07-10T04:24:13;7.10;;;5.53;;
15043;SDS011;7619;48.562;8.910;2022-07-10T04:26:43;8.47;;;5.87;;
15043;SDS011;7619;48.562;8.910;2022-07-10T04:29:12;5.70;;;5.13;;
15043;SDS011;7619;48.562;8.910;2022-07-10T04:31:40;8.07;;;5.57;;
15043;SDS011;7619;48.562;8.910;2022-07-10T04:34:08;8.00;;;5.70;;
15043;SDS011;7619;48.562;8.910;2022-07-10T04:36:37;7.03;;;5.73;;
15043;SDS011;7619;48.562;8.910;2022-07-10T04:39:06;6.03;;;5.43;;
15043;SDS011;7619;48.562;8.910;2022-07-10T04:41:34;6.97;;;5.07;;
15043;SDS011;7619;48.562;8.910;2022-07-10T04:44:04;4.90;;;4.40;;
15043;SDS011;7619;48.562;8.910;2022-07-10T04:46:32;5.67;;;4.53;;
15043;SDS011;7619;48.562;8.910;2022-07-10T04:49:02;5.23;;;4.70;;
15043;SDS011;7619;48.562;8.910;2022-07-10T04:51:29;5.17;;;4.40;;
15043;SDS011;7619;48.562;8.910;2022-07-10T04:53:58;5.67;;;4.43;;
15043;SDS011;7619;48.562;8.910;2022-07-10T04:56:27;6.00;;;4.77;;
15043;SDS011;7619;48.562;8.910;2022-07-10T04:58:56;6.10;;;4.43;;
15043;SDS011;7619;48.562;8.910;2022-07-10T05:01:24;6.77;;;4.07;;
15043;SDS011;7619;48.562;8.910;2022-07-10T05:03:53;4.80;;;4.33;;
15043;SDS011;7619;48.562;8.910;2022-07-10T05:06:22;5.30;;;3.87;;
15043;SDS011;7619;48.562;8.910;2022-07-10T05:08:51;6.87;;;4.03;;
15043;SDS011;7619;48.562;8.910;2022-07-10T05:11:21;5.53;;;3.70;;
15043;SDS011;7619;48.562;8.910;2022-07-10T05:13:52;4.40;;;3.73;;
15043;SDS011;7619;48.562;8.910;2022-07-10T05:16:20;4.80;;;2.97;;
15043;SDS011;7619;48.562;8.910;2022-07-10T05:18:48;4.53;;;2.90;;
15043;SDS011;7619;48.562;8.910;2022-07-10T05:21:17;6.63;;;2.97;;
15043;SDS011;7619;48.562;8.910;2022-07-10T05:23:46;2.87;;;2.67;;
15043;SDS011;7619;48.562;8.910;2022-07-10T05:26:15;2.40;;;2.20;;
15043;SDS011;7619;48.562;8.910;2022-07-10T05:28:43;3.33;;;2.17;;
15043;SDS011;7619;48.562;8.910;2022-07-10T05:31:12;7.27;;;2.53;;
15043;SDS011;7619;48.562;8.910;2022-07-10T05:33:41;3.20;;;2.10;;
15043;SDS011;7619;48.562;8.910;2022-07-10T05:36:10;2.07;;;1.87;;
15043;SDS011;7619;48.562;8.910;2022-07-10T05:38:39;2.40;;;2.20;;
15043;SDS011;7619;48.562;8.910;2022-07-10T05:41:07;2.23;;;1.90;;
15043;SDS011;7619;48.562;8.910;2022-07-10T05:43:36;2.43;;;2.03;;
15043;SDS011;7619;48.562;8.910;2022-07-10T05:46:05;1.93;;;1.77;;
15043;SDS011;7619;48.562;8.910;2022-07-10T05:48:34;1.87;;;1.73;;
15043;SDS011;7619;48.562;8.910;2022-07-10T05:51:04;1.70;;;1.60;;
15043;SDS011;7619;48.562;8.910;2022-07-10T05:53:33;3.60;;;1.87;;
15043;SDS011;7619;48.562;8.910;2022-07-10T05:56:02;1.83;;;1.73;;
15043;SDS011;7619;48.562;8.910;2022-07-10T05:58:33;2.90;;;1.60;;
15043;SDS011;7619;48.562;8.910;2022-07-10T06:01:00;1.60;;;1.50;;
15043;SDS011;7619;48.562;8.910;2022-07-10T06:03:29;2.00;;;1.47;;
15043;SDS011;7619;48.562;8.910;2022-07-10T06:05:58;3.70;;;1.43;;
15043;SDS011;7619;48.562;8.910;2022-07-10T06:08:27;2.23;;;1.47;;
15043;SDS011;7619;48.562;8.910;2022-07-10T06:10:56;2.60;;;1.73;;
15043;SDS011;7619;48.562;8.910;2022-07-10T06:13:24;1.93;;;1.57;;
15043;SDS011;7619;48.562;8.910;2022-07-10T06:15:53;1.43;;;1.00;;
15043;SDS011;7619;48.562;8.910;2022-07-10T06:18:22;6.23;;;1.70;;
15043;SDS011;7619;48.562;8.910;2022-07-10T06:20:50;3.43;;;1.50;;
15043;SDS011;7619;48.562;8.910;2022-07-10T06:23:19;3.70;;;1.50;;
15043;SDS011;7619;48.562;8.910;2022-07-10T06:25:48;2.97;;;1.50;;
15043;SDS011;7619;48.562;8.910;2022-07-10T06:28:17;5.60;;;1.60;;
15043;SDS011;7619;48.562;8.910;2022-07-10T06:30:46;1.97;;;1.47;;
15043;SDS011;7619;48.562;8.910;2022-07-10T06:33:14;5.10;;;1.80;;
15043;SDS011;7619;48.562;8.910;2022-07-10T06:35:43;3.47;;;1.40;;
15043;SDS011;7619;48.562;8.910;2022-07-10T06:38:12;1.80;;;1.33;;
15043;SDS011;7619;48.562;8.910;2022-07-10T06:40:41;4.10;;;1.60;;
15043;SDS011;7619;48.562;8.910;2022-07-10T06:43:12;2.47;;;1.87;;
15043;SDS011;7619;48.562;8.910;2022-07-10T06:45:41;2.97;;;1.20;;
15043;SDS011;7619;48.562;8.910;2022-07-10T06:48:10;4.53;;;1.50;;
15043;SDS011;7619;48.562;8.910;2022-07-10T06:50:39;3.40;;;1.93;;
15043;SDS011;7619;48.562;8.910;2022-07-10T06:53:09;1.37;;;1.13;;
15043;SDS011;7619;48.562;8.910;2022-07-10T06:55:38;1.70;;;1.00;;
15043;SDS011;7619;48.562;8.910;2022-07-10T06:58:06;3.23;;;1.30;;
15043;SDS011;7619;48.562;8.910;2022-07-10T07:00:35;1.57;;;1.47;;
15043;SDS011;7619;48.562;8.910;2022-07-10T07:03:04;2.67;;;1.33;;
15043;SDS011;7619;48.562;8.910;2022-07-10T07:05:33;4.03;;;1.87;;
15043;SDS011;7619;48.562;8.910;2022-07-10T07:08:02;2.03;;;1.17;;
15043;SDS011;7619;48.562;8.910;2022-07-10T07:10:29;2.43;;;1.57;;
15043;SDS011;7619;48.562;8.910;2022-07-10T07:12:58;4.47;;;1.40;;
15043;SDS011;7619;48.562;8.910;2022-07-10T07:15:29;4.23;;;1.47;;
15043;SDS011;7619;48.562;8.910;2022-07-10T07:17:59;3.27;;;1.27;;
15043;SDS011;7619;48.562;8.910;2022-07-10T07:20:36;3.43;;;1.10;;
15043;SDS011;7619;48.562;8.910;2022-07-10T07:23:23;2.17;;;1.20;;
15043;SDS011;7619;48.562;8.910;2022-07-10T07:25:52;3.90;;;1.30;;
15043;SDS011;7619;48.562;8.910;2022-07-10T07:28:22;1.13;;;0.87;;
15043;SDS011;7619;48.562;8.910;2022-07-10T07:30:50;2.80;;;1.03;;
15043;SDS011;7619;48.562;8.910;2022-07-10T07:33:19;1.57;;;1.23;;
15043;SDS011;7619;48.562;8.910;2022-07-10T07:35:48;1.67;;;1.40;;
15043;SDS011;7619;48.562;8.910;2022-07-10T07:38:17;1.03;;;0.93;;
15043;SDS011;7619;48.562;8.910;2022-07-10T07:40:46;5.57;;;1.20;;
15043;SDS011;7619;48.562;8.910;2022-07-10T07:43:15;1.40;;;1.20;;
15043;SDS011;7619;48.562;8.910;2022-07-10T07:45:44;2.90;;;1.10;;
15043;SDS011;7619;48.562;8.910;2022-07-10T07:48:14;1.30;;;1.13;;
15043;SDS011;7619;48.562;8.910;2022-07-10T07:53:18;2.43;;;1.20;;
15043;SDS011;7619;48.562;8.910;2022-07-10T07:55:47;3.73;;;1.30;;
15043;SDS011;7619;48.562;8.910;2022-07-10T07:58:16;4.63;;;1.43;;
15043;SDS011;7619;48.562;8.910;2022-07-10T08:00:45;2.57;;;1.47;;
15043;SDS011;7619;48.562;8.910;2022-07-10T08:03:13;3.80;;;1.10;;
15043;SDS011;7619;48.562;8.910;2022-07-10T08:05:42;2.10;;;0.90;;
15043;SDS011;7619;48.562;8.910;2022-07-10T08:08:20;3.60;;;1.33;;
15043;SDS011;7619;48.562;8.910;2022-07-10T08:10:49;3.37;;;1.00;;
15043;SDS011;7619;48.562;8.910;2022-07-10T08:13:18;3.63;;;1.13;;
15043;SDS011;7619;48.562;8.910;2022-07-10T08:15:47;3.40;;;1.00;;
15043;SDS011;7619;48.562;8.910;2022-07-10T08:18:15;3.07;;;1.20;;
15043;SDS011;7619;48.562;8.910;2022-07-10T08:20:44;3.97;;;1.00;;
15043;SDS011;7619;48.562;8.910;2022-07-10T08:23:13;1.80;;;1.03;;
15043;SDS011;7619;48.562;8.910;2022-07-10T08:25:42;1.40;;;1.30;;
15043;SDS011;7619;48.562;8.910;2022-07-10T08:28:11;2.17;;;1.10;;
15043;SDS011;7619;48.562;8.910;2022-07-10T08:30:48;2.03;;;1.10;;
15043;SDS011;7619;48.562;8.910;2022-07-10T08:33:17;3.67;;;1.23;;
15043;SDS011;7619;48.562;8.910;2022-07-10T08:35:46;1.97;;;1.07;;
15043;SDS011;7619;48.562;8.910;2022-07-10T08:38:15;1.10;;;1.00;;
15043;SDS011;7619;48.562;8.910;2022-07-10T08:40:45;3.90;;;1.17;;
15043;SDS011;7619;48.562;8.910;2022-07-10T08:43:13;4.60;;;1.10;;
15043;SDS011;7619;48.562;8.910;2022-07-10T08:45:42;4.93;;;1.00;;
15043;SDS011;7619;48.562;8.910;2022-07-10T08:48:13;1.00;;;0.90;;
15043;SDS011;7619;48.562;8.910;2022-07-10T08:50:44;2.17;;;1.40;;
15043;SDS011;7619;48.562;8.910;2022-07-10T08:53:18;2.43;;;0.90;;
15043;SDS011;7619;48.562;8.910;2022-07-10T08:55:46;1.93;;;1.17;;
15043;SDS011;7619;48.562;8.910;2022-07-10T08:58:15;1.57;;;1.00;;
15043;SDS011;7619;48.562;8.910;2022-07-10T09:00:45;3.03;;;1.10;;
15043;SDS011;7619;48.562;8.910;2022-07-10T09:03:23;2.27;;;1.10;;
15043;SDS011;7619;48.562;8.910;2022-07-10T09:08:28;1.00;;;0.90;;
15043;SDS011;7619;48.562;8.910;2022-07-10T09:13:51;1.93;;;1.50;;
15043;SDS011;7619;48.562;8.910;2022-07-10T09:16:21;2.43;;;1.53;;
15043;SDS011;7619;48.562;8.910;2022-07-10T09:18:51;1.63;;;1.20;;
15043;SDS011;7619;48.562;8.910;2022-07-10T09:21:21;1.93;;;1.10;;
15043;SDS011;7619;48.562;8.910;2022-07-10T09:23:49;1.40;;;1.30;;
15043;SDS011;7619;48.562;8.910;2022-07-10T09:26:18;1.70;;;1.00;;
15043;SDS011;7619;48.562;8.910;2022-07-10T09:31:23;1.30;;;1.20;;
15043;SDS011;7619;48.562;8.910;2022-07-10T09:33:52;1.80;;;1.07;;
15043;SDS011;7619;48.562;8.910;2022-07-10T09:36:21;2.47;;;2.27;;
15043;SDS011;7619;48.562;8.910;2022-07-10T09:38:51;2.97;;;1.10;;
15043;SDS011;7619;48.562;8.910;2022-07-10T09:41:22;0.83;;;0.83;;
15043;SDS011;7619;48.562;8.910;2022-07-10T09:43:53;0.93;;;0.90;;
15043;SDS011;7619;48.562;8.910;2022-07-10T09:46:24;1.70;;;1.07;;
15043;SDS011;7619;48.562;8.910;2022-07-10T09:49:12;2.93;;;1.20;;
15043;SDS011;7619;48.562;8.910;2022-07-10T09:51:42;2.27;;;1.30;;
15043;SDS011;7619;48.562;8.910;2022-07-10T09:54:21;2.03;;;1.10;;
15043;SDS011;7619;48.562;8.910;2022-07-10T09:56:50;1.47;;;1.20;;
15043;SDS011;7619;48.562;8.910;2022-07-10T09:59:28;3.37;;;1.30;;
15043;SDS011;7619;48.562;8.910;2022-07-10T10:02:07;1.73;;;0.73;;
15043;SDS011;7619;48.562;8.910;2022-07-10T10:04:36;1.70;;;0.83;;
15043;SDS011;7619;48.562;8.910;2022-07-10T10:07:16;3.80;;;0.90;;
15043;SDS011;7619;48.562;8.910;2022-07-10T10:12:25;1.57;;;0.77;;
15043;SDS011;7619;48.562;8.910;2022-07-10T10:14:55;0.80;;;0.80;;
15043;SDS011;7619;48.562;8.910;2022-07-10T10:17:25;0.90;;;0.80;;
15043;SDS011;7619;48.562;8.910;2022-07-10T10:19:56;1.00;;;0.80;;
15043;SDS011;7619;48.562;8.910;2022-07-10T10:25:21;1.50;;;1.13;;
15043;SDS011;7619;48.562;8.910;2022-07-10T10:27:50;1.90;;;0.93;;
15043;SDS011;7619;48.562;8.910;2022-07-10T10:30:19;1.40;;;1.30;;
15043;SDS011;7619;48.562;8.910;2022-07-10T10:33:01;1.23;;;1.13;;
15043;SDS011;7619;48.562;8.910;2022-07-10T10:35:43;1.30;;;1.20;;
15043;SDS011;7619;48.562;8.910;2022-07-10T10:38:14;10.83;;;3.23;;
15043;SDS011;7619;48.562;8.910;2022-07-10T10:40:42;3.50;;;1.70;;
15043;SDS011;7619;48.562;8.910;2022-07-10T10:43:17;1.90;;;1.00;;
15043;SDS011;7619;48.562;8.910;2022-07-10T10:45:48;1.43;;;1.00;;
15043;SDS011;7619;48.562;8.910;2022-07-10T10:48:29;1.30;;;1.20;;
15043;SDS011;7619;48.562;8.910;2022-07-10T10:50:58;1.83;;;1.20;;
15043;SDS011;7619;48.562;8.910;2022-07-10T10:53:28;1.13;;;1.03;;
15043;SDS011;7619;48.562;8.910;2022-07-10T10:58:51;1.10;;;1.00;;
15043;SDS011;7619;48.562;8.910;2022-07-10T11:01:29;1.67;;;0.90;;
15043;SDS011;7619;48.562;8.910;2022-07-10T11:04:15;1.37;;;0.90;;
15043;SDS011;7619;48.562;8.910;2022-07-10T11:06:46;1.60;;;1.03;;
15043;SDS011;7619;48.562;8.910;2022-07-10T11:09:23;2.83;;;1.00;;
15043;SDS011;7619;48.562;8.910;2022-07-10T11:14:44;1.00;;;0.90;;
15043;SDS011;7619;48.562;8.910;2022-07-10T11:17:24;1.70;;;0.90;;
15043;SDS011;7619;48.562;8.910;2022-07-10T11:20:04;2.30;;;0.80;;
15043;SDS011;7619;48.562;8.910;2022-07-10T11:28:35;0.87;;;0.87;;
15043;SDS011;7619;48.562;8.910;2022-07-10T11:31:08;1.53;;;1.00;;
15043;SDS011;7619;48.562;8.910;2022-07-10T11:33:40;2.47;;;0.90;;
15043;SDS011;7619;48.562;8.910;2022-07-10T11:36:10;1.03;;;1.00;;
15043;SDS011;7619;48.562;8.910;2022-07-10T11:38:42;1.53;;;0.93;;
15043;SDS011;7619;48.562;8.910;2022-07-10T11:41:13;2.40;;;1.07;;
15043;SDS011;7619;48.562;8.910;2022-07-10T11:43:49;1.57;;;1.00;;
15043;SDS011;7619;48.562;8.910;2022-07-10T11:46:20;2.50;;;1.40;;
15043;SDS011;7619;48.562;8.910;2022-07-10T11:48:50;2.27;;;1.27;;
15043;SDS011;7619;48.562;8.910;2022-07-10T11:51:29;1.17;;;1.00;;
15043;SDS011;7619;48.562;8.910;2022-07-10T11:53:59;1.23;;;0.87;;
15043;SDS011;7619;48.562;8.910;2022-07-10T11:56:30;1.17;;;1.00;;
15043;SDS011;7619;48.562;8.910;2022-07-10T11:59:10;3.03;;;1.00;;
15043;SDS011;7619;48.562;8.910;2022-07-10T12:01:41;2.00;;;0.90;;
15043;SDS011;7619;48.562;8.910;2022-07-10T12:04:11;1.47;;;1.00;;
15043;SDS011;7619;48.562;8.910;2022-07-10T12:06:40;1.87;;;1.10;;
15043;SDS011;7619;48.562;8.910;2022-07-10T12:09:11;0.60;;;0.60;;
15043;SDS011;7619;48.562;8.910;2022-07-10T12:11:41;1.03;;;0.83;;
15043;SDS011;7619;48.562;8.910;2022-07-10T12:14:22;1.97;;;0.90;;
15043;SDS011;7619;48.562;8.910;2022-07-10T12:16:52;2.00;;;0.77;;
15043;SDS011;7619;48.562;8.910;2022-07-10T12:19:30;3.47;;;1.00;;
15043;SDS011;7619;48.562;8.910;2022-07-10T12:21:59;1.87;;;0.70;;
15043;SDS011;7619;48.562;8.910;2022-07-10T12:24:29;1.73;;;0.60;;
15043;SDS011;7619;48.562;8.910;2022-07-10T12:26:59;2.13;;;0.80;;
15043;SDS011;7619;48.562;8.910;2022-07-10T12:29:28;3.40;;;0.60;;
15043;SDS011;7619;48.562;8.910;2022-07-10T12:31:57;0.60;;;0.60;;
15043;SDS011;7619;48.562;8.910;2022-07-10T12:34:34;3.77;;;0.60;;
15043;SDS011;7619;48.562;8.910;2022-07-10T12:37:08;5.90;;;0.90;;
15043;SDS011;7619;48.562;8.910;2022-07-10T12:39:45;0.60;;;0.57;;
15043;SDS011;7619;48.562;8.910;2022-07-10T12:42:08;2.40;;;0.90;;
15043;SDS011;7619;48.562;8.910;2022-07-10T12:44:37;1.53;;;0.70;;
15043;SDS011;7619;48.562;8.910;2022-07-10T12:47:05;1.93;;;0.70;;
15043;SDS011;7619;48.562;8.910;2022-07-10T12:49:48;2.17;;;0.40;;
15043;SDS011;7619;48.562;8.910;2022-07-10T12:52:23;0.43;;;0.43;;
15043;SDS011;7619;48.562;8.910;2022-07-10T12:55:05;1.60;;;0.80;;
15043;SDS011;7619;48.562;8.910;2022-07-10T12:57:50;1.23;;;0.60;;
15043;SDS011;7619;48.562;8.910;2022-07-10T13:00:21;1.33;;;0.60;;
15043;SDS011;7619;48.562;8.910;2022-07-10T13:02:57;0.70;;;0.50;;
15043;SDS011;7619;48.562;8.910;2022-07-10T13:05:31;1.63;;;0.60;;
15043;SDS011;7619;48.562;8.910;2022-07-10T13:08:08;0.40;;;0.40;;
15043;SDS011;7619;48.562;8.910;2022-07-10T13:10:40;1.43;;;0.60;;
15043;SDS011;7619;48.562;8.910;2022-07-10T13:13:19;0.70;;;0.60;;
15043;SDS011;7619;48.562;8.910;2022-07-10T13:15:48;0.97;;;0.77;;
15043;SDS011;7619;48.562;8.910;2022-07-10T13:18:20;3.03;;;0.70;;
15043;SDS011;7619;48.562;8.910;2022-07-10T13:21:05;0.80;;;0.50;;
15043;SDS011;7619;48.562;8.910;2022-07-10T13:23:34;1.03;;;0.37;;
15043;SDS011;7619;48.562;8.910;2022-07-10T13:26:03;2.43;;;0.50;;
15043;SDS011;7619;48.562;8.910;2022-07-10T13:28:33;0.67;;;0.40;;
15043;SDS011;7619;48.562;8.910;2022-07-10T13:31:15;0.97;;;0.30;;
15043;SDS011;7619;48.562;8.910;2022-07-10T13:33:44;1.70;;;0.60;;
15043;SDS011;7619;48.562;8.910;2022-07-10T13:36:13;0.40;;;0.40;;
15043;SDS011;7619;48.562;8.910;2022-07-10T13:38:41;0.57;;;0.50;;
15043;SDS011;7619;48.562;8.910;2022-07-10T13:41:19;2.07;;;0.47;;
15043;SDS011;7619;48.562;8.910;2022-07-10T13:43:48;0.70;;;0.40;;
15043;SDS011;7619;48.562;8.910;2022-07-10T13:46:17;1.23;;;0.30;;
15043;SDS011;7619;48.562;8.910;2022-07-10T13:48:59;1.47;;;0.60;;
15043;SDS011;7619;48.562;8.910;2022-07-10T13:51:27;2.10;;;0.70;;
15043;SDS011;7619;48.562;8.910;2022-07-10T13:53:55;1.47;;;0.57;;
15043;SDS011;7619;48.562;8.910;2022-07-10T13:56:24;1.17;;;0.70;;
15043;SDS011;7619;48.562;8.910;2022-07-10T13:59:03;0.33;;;0.30;;
15043;SDS011;7619;48.562;8.910;2022-07-10T14:01:31;1.03;;;0.40;;
15043;SDS011;7619;48.562;8.910;2022-07-10T14:03:59;2.13;;;0.70;;
15043;SDS011;7619;48.562;8.910;2022-07-10T14:06:29;0.63;;;0.40;;
15043;SDS011;7619;48.562;8.910;2022-07-10T14:08:56;1.43;;;0.50;;
15043;SDS011;7619;48.562;8.910;2022-07-10T14:11:35;2.10;;;0.60;;
15043;SDS011;7619;48.562;8.910;2022-07-10T14:14:04;3.87;;;0.70;;
15043;SDS011;7619;48.562;8.910;2022-07-10T14:16:33;0.80;;;0.57;;
15043;SDS011;7619;48.562;8.910;2022-07-10T14:19:01;5.67;;;0.50;;
15043;SDS011;7619;48.562;8.910;2022-07-10T14:21:40;1.13;;;0.47;;
15043;SDS011;7619;48.562;8.910;2022-07-10T14:24:09;2.80;;;0.60;;
15043;SDS011;7619;48.562;8.910;2022-07-10T14:26:37;0.70;;;0.43;;
15043;SDS011;7619;48.562;8.910;2022-07-10T14:29:09;2.20;;;0.50;;
15043;SDS011;7619;48.562;8.910;2022-07-10T14:31:38;0.50;;;0.50;;
15043;SDS011;7619;48.562;8.910;2022-07-10T14:34:07;2.60;;;0.60;;
15043;SDS011;7619;48.562;8.910;2022-07-10T14:36:37;1.80;;;0.50;;
15043;SDS011;7619;48.562;8.910;2022-07-10T14:39:05;0.90;;;0.47;;
15043;SDS011;7619;48.562;8.910;2022-07-10T14:41:34;0.60;;;0.60;;
15043;SDS011;7619;48.562;8.910;2022-07-10T14:44:03;1.80;;;0.50;;
15043;SDS011;7619;48.562;8.910;2022-07-10T14:46:33;1.27;;;0.60;;
15043;SDS011;7619;48.562;8.910;2022-07-10T14:49:00;0.77;;;0.77;;
15043;SDS011;7619;48.562;8.910;2022-07-10T14:51:29;1.13;;;0.63;;
15043;SDS011;7619;48.562;8.910;2022-07-10T14:54:00;1.10;;;0.67;;
15043;SDS011;7619;48.562;8.910;2022-07-10T14:56:37;0.53;;;0.37;;
15043;SDS011;7619;48.562;8.910;2022-07-10T14:59:07;0.67;;;0.40;;
15043;SDS011;7619;48.562;8.910;2022-07-10T15:01:34;0.40;;;0.40;;
15043;SDS011;7619;48.562;8.910;2022-07-10T15:04:03;3.30;;;0.90;;
15043;SDS011;7619;48.562;8.910;2022-07-10T15:06:32;0.80;;;0.43;;
15043;SDS011;7619;48.562;8.910;2022-07-10T15:09:01;2.33;;;0.57;;
15043;SDS011;7619;48.562;8.910;2022-07-10T15:11:30;0.67;;;0.40;;
15043;SDS011;7619;48.562;8.910;2022-07-10T15:14:08;1.17;;;0.57;;
15043;SDS011;7619;48.562;8.910;2022-07-10T15:16:37;1.50;;;0.67;;
15043;SDS011;7619;48.562;8.910;2022-07-10T15:19:06;0.80;;;0.50;;
15043;SDS011;7619;48.562;8.910;2022-07-10T15:21:36;0.60;;;0.50;;
15043;SDS011;7619;48.562;8.910;2022-07-10T15:24:06;0.83;;;0.50;;
15043;SDS011;7619;48.562;8.910;2022-07-10T15:26:35;0.70;;;0.50;;
15043;SDS011;7619;48.562;8.910;2022-07-10T15:29:16;1.87;;;0.40;;
15043;SDS011;7619;48.562;8.910;2022-07-10T15:31:48;1.37;;;0.40;;
15043;SDS011;7619;48.562;8.910;2022-07-10T15:34:16;0.70;;;0.40;;
15043;SDS011;7619;48.562;8.910;2022-07-10T15:36:46;0.50;;;0.50;;
15043;SDS011;7619;48.562;8.910;2022-07-10T15:39:15;2.60;;;0.70;;
15043;SDS011;7619;48.562;8.910;2022-07-10T15:41:45;0.80;;;0.40;;
15043;SDS011;7619;48.562;8.910;2022-07-10T15:44:14;0.50;;;0.40;;
15043;SDS011;7619;48.562;8.910;2022-07-10T15:46:42;1.30;;;0.50;;